createdAt,value
2023-04-01T00:01:33.875Z,96.23
2023-04-01T00:04:03.092Z,97.50
2023-04-01T00:06:30.771Z,98.02
2023-04-01T00:08:57.940Z,98.61
2023-04-01T00:11:25.426Z,97.62
2023-04-01T00:13:52.566Z,97.13
2023-04-01T00:16:21.665Z,97.04
2023-04-01T00:18:51.187Z,97.66
2023-04-01T00:21:18.924Z,98.97
2023-04-01T00:23:46.196Z,100.00
2023-04-01T00:26:15.211Z,98.45
2023-04-01T00:28:43.096Z,97.72
2023-04-01T00:31:11.334Z,98.58
2023-04-01T00:33:39.238Z,99.22
2023-04-01T00:36:13.455Z,99.27
2023-04-01T00:38:42.531Z,97.80
2023-04-01T00:41:15.129Z,97.84
2023-04-01T00:43:43.248Z,96.32
2023-04-01T00:46:10.458Z,94.84
2023-04-01T00:48:39.409Z,94.33
2023-04-01T00:51:11.059Z,94.85
2023-04-01T00:53:39.753Z,95.00
2023-04-01T00:56:08.892Z,94.96
2023-04-01T00:58:36.901Z,95.42
2023-04-01T01:01:04.284Z,94.70
2023-04-01T01:03:32.118Z,93.15
2023-04-01T01:06:22.924Z,94.28
2023-04-01T01:08:50.506Z,94.29
2023-04-01T01:11:18.143Z,93.98
2023-04-01T01:13:49.321Z,93.42
2023-04-01T01:16:19.080Z,91.07
2023-04-01T01:18:56.631Z,88.33
2023-04-01T01:21:36.408Z,88.05
2023-04-01T01:24:22.557Z,89.73
2023-04-01T01:26:55.139Z,84.36
2023-04-01T01:29:37.680Z,86.00
2023-04-01T01:32:23.607Z,87.38
2023-04-01T01:35:09.658Z,86.64
2023-04-01T01:37:37.344Z,85.78
2023-04-01T01:40:06.106Z,90.04
2023-04-01T01:42:34.307Z,88.69
2023-04-01T01:45:01.967Z,83.91
2023-04-01T01:47:29.219Z,89.70
2023-04-01T01:49:56.662Z,96.15
2023-04-01T01:52:24.356Z,92.96
2023-04-01T01:54:52.456Z,94.05
2023-04-01T01:57:21.329Z,98.22
2023-04-01T01:59:50.484Z,95.22
2023-04-01T02:02:18.557Z,96.83
2023-04-01T02:04:46.505Z,91.36
2023-04-01T02:07:33.974Z,91.09
2023-04-01T02:10:01.555Z,90.06
2023-04-01T02:12:28.734Z,87.23
2023-04-01T02:15:06.285Z,85.23
2023-04-01T02:17:33.831Z,86.90
2023-04-01T02:20:02.412Z,90.70
2023-04-01T02:22:30.236Z,91.46
2023-04-01T02:25:02.370Z,89.92
2023-04-01T02:27:29.574Z,88.66
2023-04-01T02:29:56.848Z,91.58
2023-04-01T02:32:24.547Z,92.64
2023-04-01T02:34:52.129Z,92.82
2023-04-01T02:37:19.335Z,92.50
2023-04-01T02:39:46.803Z,94.16
2023-04-01T02:42:14.633Z,96.25
2023-04-01T02:44:41.776Z,98.72
2023-04-01T02:47:09.216Z,100.00
2023-04-01T02:49:36.405Z,100.00
2023-04-01T02:52:03.638Z,100.00
2023-04-01T02:54:31.492Z,100.00
2023-04-01T02:56:58.704Z,100.00
2023-04-01T02:59:26.034Z,100.00
2023-04-01T03:01:53.533Z,100.00
2023-04-01T03:04:21.112Z,100.00
2023-04-01T03:06:48.282Z,100.00
2023-04-01T03:09:16.228Z,100.00
2023-04-01T03:11:43.503Z,100.00
2023-04-01T03:14:10.754Z,100.00
2023-04-01T03:16:38.246Z,95.77
2023-04-01T03:19:05.728Z,91.96
2023-04-01T03:21:32.889Z,93.76
2023-04-01T03:24:01.479Z,98.52
2023-04-01T03:26:29.154Z,98.41
2023-04-01T03:28:56.618Z,97.93
2023-04-01T03:31:24.266Z,98.47
2023-04-01T03:33:52.016Z,99.02
2023-04-01T03:36:19.377Z,97.05
2023-04-01T03:38:47.413Z,94.68
2023-04-01T03:41:16.053Z,94.54
2023-04-01T03:43:43.963Z,92.28
2023-04-01T03:46:11.767Z,88.47
2023-04-01T03:48:39.048Z,84.31
2023-04-01T03:51:09.328Z,83.42
2023-04-01T03:53:37.000Z,81.34
2023-04-01T03:56:08.092Z,78.33
2023-04-01T03:58:35.888Z,79.47
2023-04-01T04:01:03.559Z,85.12
2023-04-01T04:03:31.767Z,81.32
2023-04-01T04:05:59.269Z,87.74
2023-04-01T04:08:26.500Z,89.20
2023-04-01T04:10:57.140Z,93.39
2023-04-01T04:13:24.531Z,95.04
2023-04-01T04:15:54.887Z,96.42
2023-04-01T04:18:22.424Z,97.81
2023-04-01T04:20:51.973Z,97.84
2023-04-01T04:23:19.544Z,98.43
2023-04-01T04:26:00.130Z,99.07
2023-04-01T04:28:27.980Z,97.41
2023-04-01T04:30:56.827Z,97.58
2023-04-01T04:33:24.096Z,96.52
2023-04-01T04:35:51.382Z,90.34
2023-04-01T04:38:19.281Z,94.89
2023-04-01T04:40:46.502Z,92.65
2023-04-01T04:43:14.330Z,94.69
2023-04-01T04:45:42.384Z,95.61
2023-04-01T04:48:11.483Z,96.07
2023-04-01T04:50:39.137Z,95.34
2023-04-01T04:55:34.242Z,90.61
2023-04-01T04:58:02.581Z,86.61
2023-04-01T05:00:30.713Z,84.36
2023-04-01T05:02:58.327Z,84.45
2023-04-01T05:05:25.584Z,86.47
2023-04-01T05:07:53.420Z,91.83
2023-04-01T05:10:21.792Z,94.85
2023-04-01T05:12:48.939Z,93.23
2023-04-01T05:15:16.590Z,91.54
2023-04-01T05:17:43.888Z,93.56
2023-04-01T05:20:15.009Z,94.40
2023-04-01T05:22:42.778Z,97.41
2023-04-01T05:25:10.563Z,97.59
2023-04-01T05:27:37.735Z,98.15
2023-04-01T05:30:06.712Z,98.79
2023-04-01T05:32:35.657Z,99.43
2023-04-01T05:35:02.999Z,99.14
2023-04-01T05:37:30.444Z,98.99
2023-04-01T05:39:59.636Z,97.42
2023-04-01T05:42:27.170Z,96.05
2023-04-01T05:44:54.744Z,93.69
2023-04-01T05:47:29.991Z,88.29
2023-04-01T05:49:57.498Z,84.00
2023-04-01T05:52:24.677Z,82.32
2023-04-01T05:54:52.264Z,84.43
2023-04-01T05:57:19.885Z,89.71
2023-04-01T05:59:47.128Z,89.34
2023-04-01T06:02:14.417Z,89.80
2023-04-01T06:04:41.954Z,89.41
2023-04-01T06:07:16.516Z,91.41
2023-04-01T06:09:45.205Z,89.90
2023-04-01T06:12:22.225Z,90.97
2023-04-01T06:14:56.164Z,89.53
2023-04-01T06:17:42.980Z,90.88
2023-04-01T06:20:12.295Z,90.07
2023-04-01T06:22:39.456Z,90.16
2023-04-01T06:25:06.859Z,88.94
2023-04-01T06:27:40.588Z,87.66
2023-04-01T06:30:08.944Z,86.05
2023-04-01T06:32:51.964Z,85.50
2023-04-01T06:35:19.515Z,84.05
2023-04-01T06:37:53.929Z,81.26
2023-04-01T06:40:21.276Z,81.26
2023-04-01T06:43:03.514Z,76.35
2023-04-01T06:45:41.813Z,79.38
2023-04-01T06:48:26.741Z,82.38
2023-04-01T06:51:21.155Z,81.94
2023-04-01T06:54:02.946Z,81.88
2023-04-01T06:56:36.577Z,81.56
2023-04-01T06:59:14.082Z,80.61
2023-04-01T07:01:42.900Z,78.27
2023-04-01T07:04:19.111Z,79.73
2023-04-01T07:06:48.602Z,79.01
2023-04-01T07:09:42.394Z,79.75
2023-04-01T07:12:16.741Z,80.26
2023-04-01T07:14:45.580Z,80.22
2023-04-01T07:17:21.566Z,80.97
2023-04-01T07:19:52.261Z,81.95
2023-04-01T07:22:30.170Z,80.36
2023-04-01T07:24:59.075Z,79.42
2023-04-01T07:27:26.706Z,77.72
2023-04-01T07:29:56.763Z,78.85
2023-04-01T07:32:34.747Z,77.95
2023-04-01T07:35:09.251Z,77.81
2023-04-01T07:37:55.645Z,73.96
2023-04-01T07:40:32.706Z,72.63
2023-04-01T07:43:23.096Z,71.47
2023-04-01T07:46:01.563Z,70.15
2023-04-01T07:48:48.041Z,69.92
2023-04-01T07:51:20.469Z,68.84
2023-04-01T07:53:48.163Z,68.39
2023-04-01T07:56:24.821Z,65.85
2023-04-01T07:58:54.977Z,69.55
2023-04-01T08:01:31.056Z,68.93
2023-04-01T08:04:20.579Z,65.52
2023-04-01T08:06:50.994Z,64.91
2023-04-01T08:09:18.807Z,66.64
2023-04-01T08:11:52.439Z,67.62
2023-04-01T08:14:46.129Z,68.18
2023-04-01T08:17:18.728Z,68.48
2023-04-01T08:19:53.039Z,64.86
2023-04-01T08:22:26.499Z,63.83
2023-04-01T08:24:55.916Z,64.72
2023-04-01T08:27:25.141Z,64.55
2023-04-01T08:29:55.792Z,64.17
2023-04-01T08:32:24.728Z,64.94
2023-04-01T08:35:12.145Z,63.93
2023-04-01T08:37:42.320Z,66.19
2023-04-01T08:40:28.929Z,68.36
2023-04-01T08:43:08.126Z,66.12
2023-04-01T08:45:38.362Z,63.62
2023-04-01T08:48:09.812Z,64.42
2023-04-01T08:50:37.507Z,64.09
2023-04-01T08:53:24.340Z,64.46
2023-04-01T08:55:51.883Z,67.34
2023-04-01T08:58:24.865Z,67.87
2023-04-01T09:00:57.414Z,67.80
2023-04-01T09:04:05.541Z,64.97
2023-04-01T09:06:36.573Z,66.94
2023-04-01T09:09:12.967Z,64.01
2023-04-01T09:11:59.499Z,63.32
2023-04-01T09:14:33.371Z,62.74
2023-04-01T09:17:02.461Z,62.94
2023-04-01T09:19:32.565Z,62.27
2023-04-01T09:22:19.564Z,63.62
2023-04-01T09:25:16.518Z,63.57
2023-04-01T09:27:52.997Z,67.08
2023-04-01T09:30:32.145Z,64.62
2023-04-01T09:33:04.748Z,63.41
2023-04-01T09:35:48.528Z,63.75
2023-04-01T09:38:30.981Z,62.04
2023-04-01T09:41:21.336Z,63.66
2023-04-01T09:43:55.897Z,64.53
2023-04-01T09:46:42.668Z,64.17
2023-04-01T09:49:16.703Z,62.84
2023-04-01T09:51:46.656Z,63.68
2023-04-01T09:54:27.547Z,63.10
2023-04-01T09:56:55.893Z,62.18
2023-04-01T09:59:42.477Z,62.53
2023-04-01T10:02:14.231Z,62.74
2023-04-01T10:04:50.663Z,63.19
2023-04-01T10:07:17.842Z,61.83
2023-04-01T10:09:48.008Z,62.00
2023-04-01T10:12:19.875Z,62.05
2023-04-01T10:15:06.286Z,62.08
2023-04-01T10:17:42.897Z,62.39
2023-04-01T10:20:34.382Z,64.40
2023-04-01T10:23:13.891Z,61.92
2023-04-01T10:26:08.191Z,64.07
2023-04-01T10:28:49.034Z,62.03
2023-04-01T10:31:24.568Z,60.25
2023-04-01T10:33:57.890Z,60.30
2023-04-01T10:36:25.535Z,61.54
2023-04-01T10:38:57.307Z,60.75
2023-04-01T10:41:29.588Z,61.02
2023-04-01T10:44:40.112Z,61.85
2023-04-01T10:47:18.119Z,61.52
2023-04-01T10:49:52.264Z,60.21
2023-04-01T10:52:45.463Z,59.17
2023-04-01T10:55:37.765Z,58.89
2023-04-01T10:58:40.930Z,58.97
2023-04-01T11:01:46.183Z,58.08
2023-04-01T11:04:37.917Z,58.85
2023-04-01T11:07:11.529Z,58.18
2023-04-01T11:10:16.675Z,57.54
2023-04-01T11:13:01.450Z,56.40
2023-04-01T11:15:45.961Z,55.59
2023-04-01T11:18:21.353Z,55.46
2023-04-01T11:21:07.988Z,55.59
2023-04-01T11:23:55.040Z,53.96
2023-04-01T11:27:00.945Z,54.01
2023-04-01T11:29:49.718Z,54.05
2023-04-01T11:32:39.733Z,53.75
2023-04-01T11:35:41.415Z,55.36
2023-04-01T11:38:16.847Z,53.59
2023-04-01T11:40:59.881Z,55.38
2023-04-01T11:43:40.154Z,55.01
2023-04-01T11:46:25.240Z,56.13
2023-04-01T11:49:11.239Z,54.62
2023-04-01T11:51:44.224Z,54.44
2023-04-01T11:54:18.991Z,52.90
2023-04-01T11:56:49.542Z,55.57
2023-04-01T11:59:19.790Z,54.16
2023-04-01T12:01:47.284Z,53.85
2023-04-01T12:04:33.650Z,54.26
2023-04-01T12:07:14.929Z,54.35
2023-04-01T12:09:48.438Z,52.97
2023-04-01T12:12:15.590Z,53.76
2023-04-01T12:15:01.701Z,53.49
2023-04-01T12:17:32.228Z,53.66
2023-04-01T12:20:29.398Z,53.92
2023-04-01T12:23:22.533Z,51.34
2023-04-01T12:26:08.116Z,52.14
2023-04-01T12:28:54.292Z,53.94
2023-04-01T12:31:48.042Z,52.42
2023-04-01T12:34:27.755Z,51.81
2023-04-01T12:37:21.023Z,52.38
2023-04-01T12:40:07.243Z,52.76
2023-04-01T12:43:04.032Z,51.29
2023-04-01T12:45:37.205Z,51.81
2023-04-01T12:48:20.631Z,52.72
2023-04-01T12:51:04.632Z,52.93
2023-04-01T12:53:40.444Z,52.17
2023-04-01T12:56:54.268Z,53.62
2023-04-01T12:59:24.824Z,53.87
2023-04-01T13:01:52.145Z,54.51
2023-04-01T13:04:40.980Z,52.33
2023-04-01T13:07:17.816Z,54.36
2023-04-01T13:09:50.611Z,52.62
2023-04-01T13:12:35.029Z,53.37
2023-04-01T13:15:14.252Z,52.24
2023-04-01T13:17:54.612Z,51.85
2023-04-01T13:20:24.928Z,50.37
2023-04-01T13:23:24.122Z,51.67
2023-04-01T13:26:14.787Z,50.64
2023-04-01T13:29:01.244Z,50.95
2023-04-01T13:31:37.770Z,51.22
2023-04-01T13:34:23.299Z,50.57
2023-04-01T13:37:29.574Z,50.26
2023-04-01T13:40:23.077Z,50.97
2023-04-01T13:42:51.374Z,51.81
2023-04-01T13:45:22.117Z,53.00
2023-04-01T13:48:08.450Z,51.94
2023-04-01T13:51:06.994Z,51.42
2023-04-01T13:53:57.647Z,53.10
2023-04-01T13:56:40.532Z,56.25
2023-04-01T13:59:35.953Z,58.77
2023-04-01T14:02:28.811Z,62.22
2023-04-01T14:05:47.611Z,64.95
2023-04-01T14:08:41.611Z,63.60
2023-04-01T14:11:45.489Z,63.34
2023-04-01T14:14:24.421Z,63.08
2023-04-01T14:16:51.964Z,62.06
2023-04-01T14:19:46.758Z,62.85
2023-04-01T14:22:33.508Z,62.59
2023-04-01T14:25:22.907Z,63.68
2023-04-01T14:28:09.271Z,60.24
2023-04-01T14:30:38.814Z,58.50
2023-04-01T14:33:36.742Z,60.44
2023-04-01T14:36:34.402Z,58.60
2023-04-01T14:39:31.216Z,60.11
2023-04-01T14:42:26.007Z,58.56
2023-04-01T14:45:18.569Z,60.87
2023-04-01T14:47:59.844Z,61.55
2023-04-01T14:50:32.453Z,59.16
2023-04-01T14:53:08.922Z,59.88
2023-04-01T14:55:42.337Z,57.14
2023-04-01T14:58:15.568Z,55.43
2023-04-01T15:00:58.523Z,58.12
2023-04-01T15:03:40.503Z,58.19
2023-04-01T15:06:39.595Z,56.98
2023-04-01T15:09:23.411Z,55.55
2023-04-01T15:12:10.917Z,56.07
2023-04-01T15:14:44.288Z,59.78
2023-04-01T15:17:47.142Z,55.43
2023-04-01T15:20:35.596Z,56.76
2023-04-01T15:23:26.553Z,59.03
2023-04-01T15:26:12.393Z,56.82
2023-04-01T15:29:00.388Z,55.91
2023-04-01T15:31:38.833Z,54.76
2023-04-01T15:34:37.241Z,52.34
2023-04-01T15:37:10.869Z,51.43
2023-04-01T15:39:45.522Z,49.78
2023-04-01T15:42:24.679Z,48.81
2023-04-01T15:45:16.824Z,48.70
2023-04-01T15:47:53.959Z,48.49
2023-04-01T15:50:55.577Z,49.91
2023-04-01T15:53:38.932Z,48.33
2023-04-01T15:56:27.819Z,47.80
2023-04-01T15:59:13.911Z,47.27
2023-04-01T16:01:44.737Z,47.55
2023-04-01T16:04:33.855Z,48.61
2023-04-01T16:07:10.673Z,46.89
2023-04-01T16:09:49.489Z,46.59
2023-04-01T16:12:20.952Z,46.44
2023-04-01T16:15:06.141Z,46.29
2023-04-01T16:17:47.534Z,46.54
2023-04-01T16:20:23.723Z,46.08
2023-04-01T16:23:11.167Z,46.31
2023-04-01T16:25:51.122Z,47.13
2023-04-01T16:28:25.571Z,47.04
2023-04-01T16:31:04.682Z,47.48
2023-04-01T16:33:59.797Z,46.50
2023-04-01T16:36:34.247Z,46.94
2023-04-01T16:39:27.296Z,47.35
2023-04-01T16:42:07.335Z,47.24
2023-04-01T16:45:00.671Z,47.14
2023-04-01T16:47:33.355Z,48.79
2023-04-01T16:50:08.085Z,47.17
2023-04-01T16:53:01.863Z,47.51
2023-04-01T16:55:42.235Z,47.60
2023-04-01T16:58:19.562Z,46.79
2023-04-01T17:00:54.116Z,46.77
2023-04-01T17:03:32.407Z,46.40
2023-04-01T17:06:12.499Z,45.87
2023-04-01T17:08:52.574Z,45.87
2023-04-01T17:11:30.329Z,45.61
2023-04-01T17:14:16.871Z,45.68
2023-04-01T17:17:12.576Z,45.85
2023-04-01T17:20:17.415Z,46.01
2023-04-01T17:22:54.438Z,47.90
2023-04-01T17:25:52.080Z,49.65
2023-04-01T17:28:32.406Z,49.54
2023-04-01T17:31:47.352Z,51.07
2023-04-01T17:34:35.287Z,52.20
2023-04-01T17:37:10.754Z,53.25
2023-04-01T17:40:06.675Z,53.41
2023-04-01T17:42:48.325Z,53.11
2023-04-01T17:45:38.260Z,55.30
2023-04-01T17:48:21.021Z,56.29
2023-04-01T17:51:09.679Z,55.61
2023-04-01T17:54:03.348Z,55.95
2023-04-01T17:57:04.449Z,56.98
2023-04-01T17:59:37.980Z,56.92
2023-04-01T18:02:25.215Z,57.48
2023-04-01T18:05:13.276Z,57.96
2023-04-01T18:10:12.097Z,57.21
2023-04-01T18:12:52.876Z,57.21
2023-04-01T18:15:56.671Z,57.61
2023-04-01T18:18:51.958Z,56.84
2023-04-01T18:21:47.657Z,55.58
2023-04-01T18:24:38.185Z,55.10
2023-04-01T18:27:18.668Z,55.00
2023-04-01T18:30:04.989Z,54.93
2023-04-01T18:32:49.721Z,56.25
2023-04-01T18:35:24.300Z,57.89
2023-04-01T18:38:02.053Z,59.25
2023-04-01T18:40:36.873Z,58.37
2023-04-01T18:43:28.890Z,58.95
2023-04-01T18:46:10.753Z,58.89
2023-04-01T18:48:55.365Z,58.85
2023-04-01T18:51:58.671Z,58.18
2023-04-01T18:54:38.686Z,58.51
2023-04-01T18:57:25.757Z,58.96
2023-04-01T19:00:19.671Z,60.35
2023-04-01T19:03:04.327Z,60.93
2023-04-01T19:05:39.639Z,63.01
2023-04-01T19:08:32.138Z,62.27
2023-04-01T19:11:27.379Z,62.12
2023-04-01T19:14:22.262Z,62.10
2023-04-01T19:17:08.270Z,63.16
2023-04-01T19:19:56.757Z,63.96
2023-04-01T19:22:52.964Z,64.69
2023-04-01T19:25:28.088Z,67.29
2023-04-01T19:28:22.239Z,70.77
2023-04-01T19:30:55.745Z,71.74
2023-04-01T19:33:34.168Z,72.91
2023-04-01T19:36:09.257Z,69.43
2023-04-01T19:38:52.824Z,69.82
2023-04-01T19:41:31.311Z,70.94
2023-04-01T19:44:24.336Z,71.39
2023-04-01T19:47:03.484Z,71.62
2023-04-01T19:50:03.838Z,70.83
2023-04-01T19:52:35.944Z,70.64
2023-04-01T19:55:26.034Z,70.14
2023-04-01T19:58:08.610Z,69.71
2023-04-01T20:00:41.282Z,70.64
2023-04-01T20:03:34.081Z,69.39
2023-04-01T20:06:14.164Z,71.60
2023-04-01T20:08:47.545Z,73.57
2023-04-01T20:11:16.174Z,73.98
2023-04-01T20:13:49.913Z,74.11
2023-04-01T20:16:18.303Z,73.97
2023-04-01T20:18:57.083Z,74.16
2023-04-01T20:21:44.682Z,74.33
2023-04-01T20:24:16.093Z,74.30
2023-04-01T20:26:49.267Z,74.55
2023-04-01T20:29:39.377Z,74.70
2023-04-01T20:32:18.123Z,75.34
2023-04-01T20:35:14.671Z,74.75
2023-04-01T20:38:10.036Z,73.93
2023-04-01T20:41:09.207Z,75.52
2023-04-01T20:44:12.422Z,74.78
2023-04-01T20:46:56.921Z,75.45
2023-04-01T20:49:52.072Z,75.10
2023-04-01T20:52:31.160Z,72.16
2023-04-01T20:55:14.738Z,69.90
2023-04-01T20:58:14.824Z,68.18
2023-04-01T21:01:10.254Z,74.22
2023-04-01T21:03:57.007Z,76.17
2023-04-01T21:06:44.141Z,76.53
2023-04-01T21:09:34.105Z,76.21
2023-04-01T21:12:15.442Z,77.79
2023-04-01T21:15:08.988Z,77.08
2023-04-01T21:17:50.323Z,77.54
2023-04-01T21:20:27.922Z,76.55
2023-04-01T21:23:01.682Z,72.13
2023-04-01T21:25:59.816Z,75.32
2023-04-01T21:28:36.052Z,73.52
2023-04-01T21:31:09.707Z,73.69
2023-04-01T21:33:55.636Z,74.30
2023-04-01T21:36:36.448Z,73.55
2023-04-01T21:39:29.683Z,75.83
2023-04-01T21:42:20.657Z,76.03
2023-04-01T21:44:48.006Z,76.10
2023-04-01T21:47:40.833Z,76.19
2023-04-01T21:50:30.537Z,75.75
2023-04-01T21:53:24.670Z,75.73
2023-04-01T21:56:13.264Z,76.15
2023-04-01T21:59:08.506Z,74.59
2023-04-01T22:02:30.050Z,75.21
2023-04-01T22:05:06.600Z,74.61
2023-04-01T22:07:53.439Z,75.21
2023-04-01T22:10:39.698Z,75.02
2023-04-01T22:13:09.332Z,75.45
2023-04-01T22:16:14.608Z,75.78
2023-04-01T22:19:06.938Z,74.01
2023-04-01T22:21:53.153Z,75.48
2023-04-01T22:24:35.930Z,75.59
2023-04-01T22:27:29.510Z,76.22
2023-04-01T22:30:09.978Z,75.37
2023-04-01T22:32:45.669Z,75.61
2023-04-01T22:35:28.810Z,75.37
2023-04-01T22:38:05.864Z,75.98
2023-04-01T22:40:39.073Z,77.26
2023-04-01T22:43:15.817Z,76.43
2023-04-01T22:45:55.584Z,77.66
2023-04-01T22:48:42.821Z,78.36
2023-04-01T22:51:23.424Z,78.05
2023-04-01T22:53:58.696Z,77.50
2023-04-01T22:56:40.883Z,78.06
2023-04-01T22:59:12.843Z,77.38
2023-04-01T23:01:46.614Z,78.03
2023-04-01T23:04:20.809Z,77.98
2023-04-01T23:06:55.054Z,78.19
2023-04-01T23:09:31.125Z,78.30
2023-04-01T23:12:05.376Z,78.28
2023-04-01T23:14:38.369Z,78.82
2023-04-01T23:17:11.867Z,79.11
2023-04-01T23:19:54.518Z,79.58
2023-04-01T23:22:27.603Z,79.15
2023-04-01T23:25:16.997Z,79.33
2023-04-01T23:28:00.965Z,79.43
2023-04-01T23:30:40.925Z,79.51
2023-04-01T23:33:18.004Z,79.43
2023-04-01T23:35:56.854Z,80.79
2023-04-01T23:38:26.570Z,80.92
2023-04-01T23:40:55.974Z,80.92
2023-04-01T23:43:28.674Z,80.93
2023-04-01T23:45:57.008Z,81.00
2023-04-01T23:48:37.813Z,79.89
2023-04-01T23:51:15.878Z,79.47
2023-04-01T23:53:47.047Z,80.25
2023-04-01T23:56:18.954Z,80.54
2023-04-01T23:58:53.463Z,79.68
